KSGU/SGU METAR and TAF weather

Enter ICAO airport designator
Station Type Date Time Source
KSGU METAR 2021/09/20 04:56 UTC NOAA

KSGU 200456Z AUTO 00000KT 10SM CLR 24/01 A2990 RMK AO2 SLP092 T02440006


Station Type Date Time Source
KSGU Decoded METAR 2021/09/20 04:56 UTC NOAA

St George, St George Municipal Airport, UT, United States (KSGU) 37-05N 113-36W
Sep 20, 2021 - 12:56 AM EDT / 2021.09.20 0456 UTC
Wind: Calm:0
Visibility: 10 mile(s):0
Sky conditions: clear
Temperature: 75.9 F (24.4 C)
Dew Point: 33.1 F (0.6 C)
Relative Humidity: 20%
Pressure (altimeter): 29.9 in. Hg (1012 hPa)
ob: KSGU 200456Z AUTO 00000KT 10SM CLR 24/01 A2990 RMK AO2 SLP092 T02440006
cycle: 5

Station Type Date Time Source
KSGU TAF 2021/09/20 03:06 UTC NOAA

TAF
AMD KSGU 200304Z 2003/2024 22010KT P6SM SKC
FM200800 04012G18KT P6SM SKC
FM201300 VRB06KT P6SM SKC

Example: see airport list